sensor_id;sensor_type;location;lat;lon;timestamp;temperature;humidity
43697;DHT22;29301;47.620;19.560;2023-08-12T00:00:32;16.60;63.10
43697;DHT22;29301;47.620;19.560;2023-08-12T00:02:58;16.60;63.40
43697;DHT22;29301;47.620;19.560;2023-08-12T00:05:23;16.60;63.60
43697;DHT22;29301;47.620;19.560;2023-08-12T00:07:49;16.60;63.60
43697;DHT22;29301;47.620;19.560;2023-08-12T00:10:15;16.50;63.80
43697;DHT22;29301;47.620;19.560;2023-08-12T00:12:41;16.50;64.70
43697;DHT22;29301;47.620;19.560;2023-08-12T00:15:08;16.40;65.00
43697;DHT22;29301;47.620;19.560;2023-08-12T00:17:35;16.40;65.10
43697;DHT22;29301;47.620;19.560;2023-08-12T00:20:05;16.50;65.60
43697;DHT22;29301;47.620;19.560;2023-08-12T00:22:32;16.40;65.90
43697;DHT22;29301;47.620;19.560;2023-08-12T00:24:57;16.50;65.90
43697;DHT22;29301;47.620;19.560;2023-08-12T00:27:23;16.50;65.70
43697;DHT22;29301;47.620;19.560;2023-08-12T00:29:49;16.50;65.50
43697;DHT22;29301;47.620;19.560;2023-08-12T00:32:14;16.50;65.40
43697;DHT22;29301;47.620;19.560;2023-08-12T00:34:40;16.50;66.00
43697;DHT22;29301;47.620;19.560;2023-08-12T00:37:06;16.40;65.80
43697;DHT22;29301;47.620;19.560;2023-08-12T00:39:31;16.50;65.80
43697;DHT22;29301;47.620;19.560;2023-08-12T00:41:57;16.50;66.00
43697;DHT22;29301;47.620;19.560;2023-08-12T00:44:23;16.50;66.20
43697;DHT22;29301;47.620;19.560;2023-08-12T00:46:48;16.50;65.20
43697;DHT22;29301;47.620;19.560;2023-08-12T00:49:15;16.50;64.80
43697;DHT22;29301;47.620;19.560;2023-08-12T00:51:42;16.40;65.10
43697;DHT22;29301;47.620;19.560;2023-08-12T00:54:14;16.20;65.40
43697;DHT22;29301;47.620;19.560;2023-08-12T00:56:41;16.30;65.90
43697;DHT22;29301;47.620;19.560;2023-08-12T00:59:08;16.20;65.80
43697;DHT22;29301;47.620;19.560;2023-08-12T01:01:40;16.30;65.50
43697;DHT22;29301;47.620;19.560;2023-08-12T01:04:09;16.30;65.30
43697;DHT22;29301;47.620;19.560;2023-08-12T01:06:35;16.40;65.30
43697;DHT22;29301;47.620;19.560;2023-08-12T01:09:03;16.40;65.30
43697;DHT22;29301;47.620;19.560;2023-08-12T01:11:39;16.30;65.00
43697;DHT22;29301;47.620;19.560;2023-08-12T01:16:52;16.30;65.50
43697;DHT22;29301;47.620;19.560;2023-08-12T01:19:33;16.30;65.60
43697;DHT22;29301;47.620;19.560;2023-08-12T01:22:01;16.30;65.30
43697;DHT22;29301;47.620;19.560;2023-08-12T01:24:27;16.30;65.30
43697;DHT22;29301;47.620;19.560;2023-08-12T01:27:00;16.30;65.60
43697;DHT22;29301;47.620;19.560;2023-08-12T01:29:25;16.30;65.50
43697;DHT22;29301;47.620;19.560;2023-08-12T01:31:56;16.20;65.90
43697;DHT22;29301;47.620;19.560;2023-08-12T01:34:38;16.20;66.20
43697;DHT22;29301;47.620;19.560;2023-08-12T01:37:05;16.20;66.20
43697;DHT22;29301;47.620;19.560;2023-08-12T01:39:34;16.10;66.10
43697;DHT22;29301;47.620;19.560;2023-08-12T01:42:01;16.10;66.00
43697;DHT22;29301;47.620;19.560;2023-08-12T01:44:27;16.10;65.70
43697;DHT22;29301;47.620;19.560;2023-08-12T01:46:53;16.10;65.70
43697;DHT22;29301;47.620;19.560;2023-08-12T01:49:19;16.10;65.90
43697;DHT22;29301;47.620;19.560;2023-08-12T01:51:45;16.10;66.10
43697;DHT22;29301;47.620;19.560;2023-08-12T01:54:10;16.00;66.30
43697;DHT22;29301;47.620;19.560;2023-08-12T01:56:36;16.00;67.00
43697;DHT22;29301;47.620;19.560;2023-08-12T01:59:02;15.80;67.90
43697;DHT22;29301;47.620;19.560;2023-08-12T02:01:27;15.80;68.40
43697;DHT22;29301;47.620;19.560;2023-08-12T02:03:53;15.70;68.70
43697;DHT22;29301;47.620;19.560;2023-08-12T02:06:18;15.70;69.00
43697;DHT22;29301;47.620;19.560;2023-08-12T02:08:45;15.70;68.90
43697;DHT22;29301;47.620;19.560;2023-08-12T02:11:10;15.60;69.10
43697;DHT22;29301;47.620;19.560;2023-08-12T02:13:36;15.60;69.60
43697;DHT22;29301;47.620;19.560;2023-08-12T02:16:02;15.50;69.90
43697;DHT22;29301;47.620;19.560;2023-08-12T02:18:27;15.50;70.00
43697;DHT22;29301;47.620;19.560;2023-08-12T02:20:53;15.40;70.30
43697;DHT22;29301;47.620;19.560;2023-08-12T02:23:19;15.40;70.80
43697;DHT22;29301;47.620;19.560;2023-08-12T02:25:44;15.40;71.30
43697;DHT22;29301;47.620;19.560;2023-08-12T02:28:10;15.40;71.10
43697;DHT22;29301;47.620;19.560;2023-08-12T02:30:36;15.50;70.70
43697;DHT22;29301;47.620;19.560;2023-08-12T02:33:01;15.50;70.70
43697;DHT22;29301;47.620;19.560;2023-08-12T02:35:27;15.40;70.90
43697;DHT22;29301;47.620;19.560;2023-08-12T02:37:52;15.40;71.10
43697;DHT22;29301;47.620;19.560;2023-08-12T02:40:18;15.50;71.00
43697;DHT22;29301;47.620;19.560;2023-08-12T02:42:44;15.40;70.90
43697;DHT22;29301;47.620;19.560;2023-08-12T02:45:09;15.40;71.10
43697;DHT22;29301;47.620;19.560;2023-08-12T02:47:35;15.40;71.40
43697;DHT22;29301;47.620;19.560;2023-08-12T02:50:01;15.40;71.70
43697;DHT22;29301;47.620;19.560;2023-08-12T02:52:26;15.30;71.40
43697;DHT22;29301;47.620;19.560;2023-08-12T02:54:52;15.40;71.40
43697;DHT22;29301;47.620;19.560;2023-08-12T02:57:17;15.40;71.60
43697;DHT22;29301;47.620;19.560;2023-08-12T02:59:43;15.30;71.40
43697;DHT22;29301;47.620;19.560;2023-08-12T03:02:09;15.40;71.10
43697;DHT22;29301;47.620;19.560;2023-08-12T03:04:35;15.50;71.10
43697;DHT22;29301;47.620;19.560;2023-08-12T03:07:01;15.40;71.20
43697;DHT22;29301;47.620;19.560;2023-08-12T03:09:27;15.40;71.40
43697;DHT22;29301;47.620;19.560;2023-08-12T03:11:53;15.40;71.00
43697;DHT22;29301;47.620;19.560;2023-08-12T03:14:19;15.40;71.00
43697;DHT22;29301;47.620;19.560;2023-08-12T03:16:44;15.40;71.10
43697;DHT22;29301;47.620;19.560;2023-08-12T03:19:10;15.40;71.40
43697;DHT22;29301;47.620;19.560;2023-08-12T03:21:36;15.30;71.30
43697;DHT22;29301;47.620;19.560;2023-08-12T03:24:01;15.40;71.20
43697;DHT22;29301;47.620;19.560;2023-08-12T03:26:27;15.30;71.30
43697;DHT22;29301;47.620;19.560;2023-08-12T03:28:53;15.40;71.60
43697;DHT22;29301;47.620;19.560;2023-08-12T03:31:18;15.30;71.80
43697;DHT22;29301;47.620;19.560;2023-08-12T03:33:44;15.20;72.30
43697;DHT22;29301;47.620;19.560;2023-08-12T03:36:10;15.20;72.40
43697;DHT22;29301;47.620;19.560;2023-08-12T03:38:35;15.30;72.40
43697;DHT22;29301;47.620;19.560;2023-08-12T03:41:02;15.30;72.30
43697;DHT22;29301;47.620;19.560;2023-08-12T03:43:28;15.30;72.20
43697;DHT22;29301;47.620;19.560;2023-08-12T03:45:54;15.30;72.10
43697;DHT22;29301;47.620;19.560;2023-08-12T03:48:19;15.30;71.80
43697;DHT22;29301;47.620;19.560;2023-08-12T03:50:45;15.40;71.30
43697;DHT22;29301;47.620;19.560;2023-08-12T03:53:12;15.40;71.00
43697;DHT22;29301;47.620;19.560;2023-08-12T03:55:38;15.50;70.50
43697;DHT22;29301;47.620;19.560;2023-08-12T03:58:04;15.40;70.50
43697;DHT22;29301;47.620;19.560;2023-08-12T04:00:30;15.30;70.90
43697;DHT22;29301;47.620;19.560;2023-08-12T04:02:56;15.30;71.20
43697;DHT22;29301;47.620;19.560;2023-08-12T04:05:22;15.30;71.20
43697;DHT22;29301;47.620;19.560;2023-08-12T04:07:47;15.20;71.80
43697;DHT22;29301;47.620;19.560;2023-08-12T04:10:13;15.20;72.30
43697;DHT22;29301;47.620;19.560;2023-08-12T04:12:40;15.10;73.00
43697;DHT22;29301;47.620;19.560;2023-08-12T04:15:08;15.10;73.40
43697;DHT22;29301;47.620;19.560;2023-08-12T04:17:33;15.10;73.60
43697;DHT22;29301;47.620;19.560;2023-08-12T04:19:59;15.20;73.80
43697;DHT22;29301;47.620;19.560;2023-08-12T04:22:25;15.10;74.10
43697;DHT22;29301;47.620;19.560;2023-08-12T04:24:51;15.10;74.20
43697;DHT22;29301;47.620;19.560;2023-08-12T04:27:17;15.10;74.40
43697;DHT22;29301;47.620;19.560;2023-08-12T04:29:43;15.10;74.70
43697;DHT22;29301;47.620;19.560;2023-08-12T04:32:08;15.20;74.70
43697;DHT22;29301;47.620;19.560;2023-08-12T04:34:34;15.20;74.70
43697;DHT22;29301;47.620;19.560;2023-08-12T04:37:00;15.20;74.80
43697;DHT22;29301;47.620;19.560;2023-08-12T04:39:25;15.20;74.90
43697;DHT22;29301;47.620;19.560;2023-08-12T04:41:51;15.20;74.80
43697;DHT22;29301;47.620;19.560;2023-08-12T04:44:17;15.30;74.90
43697;DHT22;29301;47.620;19.560;2023-08-12T04:46:42;15.30;74.90
43697;DHT22;29301;47.620;19.560;2023-08-12T04:49:08;15.30;75.10
43697;DHT22;29301;47.620;19.560;2023-08-12T04:51:34;15.30;75.00
43697;DHT22;29301;47.620;19.560;2023-08-12T04:53:59;15.30;75.10
43697;DHT22;29301;47.620;19.560;2023-08-12T04:56:27;15.30;75.90
43697;DHT22;29301;47.620;19.560;2023-08-12T04:58:54;15.30;76.30
43697;DHT22;29301;47.620;19.560;2023-08-12T05:01:20;15.30;76.90
43697;DHT22;29301;47.620;19.560;2023-08-12T05:03:46;15.30;77.60
43697;DHT22;29301;47.620;19.560;2023-08-12T05:06:11;15.30;78.00
43697;DHT22;29301;47.620;19.560;2023-08-12T05:08:37;15.40;78.70
43697;DHT22;29301;47.620;19.560;2023-08-12T05:11:03;15.40;79.10
43697;DHT22;29301;47.620;19.560;2023-08-12T05:13:28;15.40;79.50
43697;DHT22;29301;47.620;19.560;2023-08-12T05:15:55;15.50;79.70
43697;DHT22;29301;47.620;19.560;2023-08-12T05:18:21;15.50;79.80
43697;DHT22;29301;47.620;19.560;2023-08-12T05:20:50;15.60;80.50
43697;DHT22;29301;47.620;19.560;2023-08-12T05:23:16;15.70;80.60
43697;DHT22;29301;47.620;19.560;2023-08-12T05:25:42;15.80;80.80
43697;DHT22;29301;47.620;19.560;2023-08-12T05:28:07;15.80;80.90
43697;DHT22;29301;47.620;19.560;2023-08-12T05:30:33;15.90;80.90
43697;DHT22;29301;47.620;19.560;2023-08-12T05:32:59;16.00;81.10
43697;DHT22;29301;47.620;19.560;2023-08-12T05:35:25;16.10;83.30
43697;DHT22;29301;47.620;19.560;2023-08-12T05:37:50;16.20;81.40
43697;DHT22;29301;47.620;19.560;2023-08-12T05:40:16;16.20;81.00
43697;DHT22;29301;47.620;19.560;2023-08-12T05:42:42;16.30;81.10
43697;DHT22;29301;47.620;19.560;2023-08-12T05:45:08;16.40;80.60
43697;DHT22;29301;47.620;19.560;2023-08-12T05:47:34;16.40;79.90
43697;DHT22;29301;47.620;19.560;2023-08-12T05:49:59;16.50;79.80
43697;DHT22;29301;47.620;19.560;2023-08-12T05:52:25;16.60;79.20
43697;DHT22;29301;47.620;19.560;2023-08-12T05:54:51;16.70;78.20
43697;DHT22;29301;47.620;19.560;2023-08-12T05:57:16;16.80;77.50
43697;DHT22;29301;47.620;19.560;2023-08-12T05:59:42;16.90;77.10
43697;DHT22;29301;47.620;19.560;2023-08-12T06:02:07;17.10;76.20
43697;DHT22;29301;47.620;19.560;2023-08-12T06:04:34;17.10;74.90
43697;DHT22;29301;47.620;19.560;2023-08-12T06:07:00;17.20;75.40
43697;DHT22;29301;47.620;19.560;2023-08-12T06:09:26;17.30;76.20
43697;DHT22;29301;47.620;19.560;2023-08-12T06:11:51;17.40;76.10
43697;DHT22;29301;47.620;19.560;2023-08-12T06:14:17;17.50;75.80
43697;DHT22;29301;47.620;19.560;2023-08-12T06:16:43;17.60;75.80
43697;DHT22;29301;47.620;19.560;2023-08-12T06:19:09;17.70;75.80
43697;DHT22;29301;47.620;19.560;2023-08-12T06:21:34;17.80;76.10
43697;DHT22;29301;47.620;19.560;2023-08-12T06:24:00;17.80;73.90
43697;DHT22;29301;47.620;19.560;2023-08-12T06:26:26;17.90;73.90
43697;DHT22;29301;47.620;19.560;2023-08-12T06:28:51;18.00;72.70
43697;DHT22;29301;47.620;19.560;2023-08-12T06:31:17;18.10;70.10
43697;DHT22;29301;47.620;19.560;2023-08-12T06:33:43;18.20;68.30
43697;DHT22;29301;47.620;19.560;2023-08-12T06:36:08;18.20;69.70
43697;DHT22;29301;47.620;19.560;2023-08-12T06:38:34;18.40;70.90
43697;DHT22;29301;47.620;19.560;2023-08-12T06:40:59;18.50;70.60
43697;DHT22;29301;47.620;19.560;2023-08-12T06:43:25;18.70;71.30
43697;DHT22;29301;47.620;19.560;2023-08-12T06:45:51;18.90;69.80
43697;DHT22;29301;47.620;19.560;2023-08-12T06:48:16;19.10;68.70
43697;DHT22;29301;47.620;19.560;2023-08-12T06:50:42;19.40;65.20
43697;DHT22;29301;47.620;19.560;2023-08-12T06:53:08;19.40;63.90
43697;DHT22;29301;47.620;19.560;2023-08-12T06:55:33;19.50;63.30
43697;DHT22;29301;47.620;19.560;2023-08-12T06:58:00;19.70;61.70
43697;DHT22;29301;47.620;19.560;2023-08-12T07:00:26;19.90;60.70
43697;DHT22;29301;47.620;19.560;2023-08-12T07:02:52;20.10;60.40
43697;DHT22;29301;47.620;19.560;2023-08-12T07:05:17;20.40;58.20
43697;DHT22;29301;47.620;19.560;2023-08-12T07:07:43;20.70;58.50
43697;DHT22;29301;47.620;19.560;2023-08-12T07:10:09;20.90;56.50
43697;DHT22;29301;47.620;19.560;2023-08-12T07:12:34;21.10;55.30
43697;DHT22;29301;47.620;19.560;2023-08-12T07:15:00;21.40;54.10
43697;DHT22;29301;47.620;19.560;2023-08-12T07:17:26;21.60;52.10
43697;DHT22;29301;47.620;19.560;2023-08-12T07:19:51;21.80;50.40
43697;DHT22;29301;47.620;19.560;2023-08-12T07:22:17;21.90;49.00
43697;DHT22;29301;47.620;19.560;2023-08-12T07:24:45;22.00;48.60
43697;DHT22;29301;47.620;19.560;2023-08-12T07:27:10;22.20;46.30
43697;DHT22;29301;47.620;19.560;2023-08-12T07:29:36;22.50;46.00
43697;DHT22;29301;47.620;19.560;2023-08-12T07:32:02;22.50;44.00
43697;DHT22;29301;47.620;19.560;2023-08-12T07:34:28;22.60;44.80
43697;DHT22;29301;47.620;19.560;2023-08-12T07:36:53;22.70;44.90
43697;DHT22;29301;47.620;19.560;2023-08-12T07:39:19;22.80;42.20
43697;DHT22;29301;47.620;19.560;2023-08-12T07:41:45;22.80;43.40
43697;DHT22;29301;47.620;19.560;2023-08-12T07:44:10;23.20;44.10
43697;DHT22;29301;47.620;19.560;2023-08-12T07:46:36;23.40;42.10
43697;DHT22;29301;47.620;19.560;2023-08-12T07:49:02;23.50;40.00
43697;DHT22;29301;47.620;19.560;2023-08-12T07:51:27;23.40;40.40
43697;DHT22;29301;47.620;19.560;2023-08-12T07:53:53;23.30;40.10
43697;DHT22;29301;47.620;19.560;2023-08-12T07:56:18;23.40;39.40
43697;DHT22;29301;47.620;19.560;2023-08-12T07:58:44;23.50;39.80
43697;DHT22;29301;47.620;19.560;2023-08-12T08:01:11;23.80;38.90
43697;DHT22;29301;47.620;19.560;2023-08-12T08:03:37;24.10;38.20
43697;DHT22;29301;47.620;19.560;2023-08-12T08:06:02;24.20;37.80
43697;DHT22;29301;47.620;19.560;2023-08-12T08:08:28;23.80;38.60
43697;DHT22;29301;47.620;19.560;2023-08-12T08:10:56;23.90;39.20
43697;DHT22;29301;47.620;19.560;2023-08-12T08:13:22;24.10;38.40
43697;DHT22;29301;47.620;19.560;2023-08-12T08:15:48;23.80;37.70
43697;DHT22;29301;47.620;19.560;2023-08-12T08:18:13;23.50;38.70
43697;DHT22;29301;47.620;19.560;2023-08-12T08:20:42;23.50;38.70
43697;DHT22;29301;47.620;19.560;2023-08-12T08:23:07;23.40;39.10
43697;DHT22;29301;47.620;19.560;2023-08-12T08:25:33;23.40;39.60
43697;DHT22;29301;47.620;19.560;2023-08-12T08:27:59;23.60;39.60
43697;DHT22;29301;47.620;19.560;2023-08-12T08:30:24;23.70;39.70
43697;DHT22;29301;47.620;19.560;2023-08-12T08:32:51;23.70;39.40
43697;DHT22;29301;47.620;19.560;2023-08-12T08:35:17;23.90;38.30
43697;DHT22;29301;47.620;19.560;2023-08-12T08:37:42;23.90;39.00
43697;DHT22;29301;47.620;19.560;2023-08-12T08:40:08;24.00;39.70
43697;DHT22;29301;47.620;19.560;2023-08-12T08:42:34;24.20;38.80
43697;DHT22;29301;47.620;19.560;2023-08-12T08:45:01;24.40;38.90
43697;DHT22;29301;47.620;19.560;2023-08-12T08:47:30;24.80;37.70
43697;DHT22;29301;47.620;19.560;2023-08-12T08:49:56;25.10;37.40
43697;DHT22;29301;47.620;19.560;2023-08-12T08:52:23;25.00;36.60
43697;DHT22;29301;47.620;19.560;2023-08-12T08:54:50;25.20;37.30
43697;DHT22;29301;47.620;19.560;2023-08-12T08:57:16;25.60;36.90
43697;DHT22;29301;47.620;19.560;2023-08-12T08:59:42;25.80;35.60
43697;DHT22;29301;47.620;19.560;2023-08-12T09:02:16;25.90;34.80
43697;DHT22;29301;47.620;19.560;2023-08-12T09:04:44;25.80;34.90
43697;DHT22;29301;47.620;19.560;2023-08-12T09:07:11;26.10;34.10
43697;DHT22;29301;47.620;19.560;2023-08-12T09:09:38;26.20;33.30
43697;DHT22;29301;47.620;19.560;2023-08-12T09:12:06;26.30;34.20
43697;DHT22;29301;47.620;19.560;2023-08-12T09:14:32;26.60;32.80
43697;DHT22;29301;47.620;19.560;2023-08-12T09:16:58;26.30;31.40
43697;DHT22;29301;47.620;19.560;2023-08-12T09:19:24;26.40;32.50
43697;DHT22;29301;47.620;19.560;2023-08-12T09:21:56;26.60;32.20
43697;DHT22;29301;47.620;19.560;2023-08-12T09:24:26;26.90;32.50
43697;DHT22;29301;47.620;19.560;2023-08-12T09:26:52;27.20;31.70
43697;DHT22;29301;47.620;19.560;2023-08-12T09:29:19;27.40;31.30
43697;DHT22;29301;47.620;19.560;2023-08-12T09:31:47;27.40;30.80
43697;DHT22;29301;47.620;19.560;2023-08-12T09:34:13;27.10;30.00
43697;DHT22;29301;47.620;19.560;2023-08-12T09:36:39;26.50;31.40
43697;DHT22;29301;47.620;19.560;2023-08-12T09:39:08;26.50;31.40
43697;DHT22;29301;47.620;19.560;2023-08-12T09:41:34;26.10;30.20
43697;DHT22;29301;47.620;19.560;2023-08-12T09:44:01;25.90;30.40
43697;DHT22;29301;47.620;19.560;2023-08-12T09:46:27;26.00;30.90
43697;DHT22;29301;47.620;19.560;2023-08-12T09:48:53;26.30;31.80
43697;DHT22;29301;47.620;19.560;2023-08-12T09:51:19;26.30;30.20
43697;DHT22;29301;47.620;19.560;2023-08-12T09:53:48;26.50;31.60
43697;DHT22;29301;47.620;19.560;2023-08-12T09:56:19;26.90;29.80
43697;DHT22;29301;47.620;19.560;2023-08-12T09:58:49;27.00;29.70
43697;DHT22;29301;47.620;19.560;2023-08-12T10:01:19;26.80;30.00
43697;DHT22;29301;47.620;19.560;2023-08-12T10:03:49;26.90;30.00
43697;DHT22;29301;47.620;19.560;2023-08-12T10:06:17;27.10;30.90
43697;DHT22;29301;47.620;19.560;2023-08-12T10:08:45;27.20;30.10
43697;DHT22;29301;47.620;19.560;2023-08-12T10:11:11;27.50;29.20
43697;DHT22;29301;47.620;19.560;2023-08-12T10:13:37;27.50;28.80
43697;DHT22;29301;47.620;19.560;2023-08-12T10:16:04;27.90;28.90
43697;DHT22;29301;47.620;19.560;2023-08-12T10:18:30;28.20;28.60
43697;DHT22;29301;47.620;19.560;2023-08-12T10:20:57;28.50;28.10
43697;DHT22;29301;47.620;19.560;2023-08-12T10:23:25;28.70;28.20
43697;DHT22;29301;47.620;19.560;2023-08-12T10:25:53;28.90;27.70
43697;DHT22;29301;47.620;19.560;2023-08-12T10:28:20;28.90;27.10
43697;DHT22;29301;47.620;19.560;2023-08-12T10:30:47;28.80;27.20
43697;DHT22;29301;47.620;19.560;2023-08-12T10:33:16;28.20;27.80
43697;DHT22;29301;47.620;19.560;2023-08-12T10:35:47;28.20;28.10
43697;DHT22;29301;47.620;19.560;2023-08-12T10:38:20;28.50;27.90
43697;DHT22;29301;47.620;19.560;2023-08-12T10:40:47;28.50;27.50
43697;DHT22;29301;47.620;19.560;2023-08-12T10:43:13;28.10;26.90
43697;DHT22;29301;47.620;19.560;2023-08-12T10:45:57;27.20;27.70
43697;DHT22;29301;47.620;19.560;2023-08-12T10:48:26;27.00;28.10
43697;DHT22;29301;47.620;19.560;2023-08-12T10:50:58;27.00;27.50
43697;DHT22;29301;47.620;19.560;2023-08-12T10:53:28;27.20;27.60
43697;DHT22;29301;47.620;19.560;2023-08-12T10:55:59;27.70;26.80
43697;DHT22;29301;47.620;19.560;2023-08-12T10:58:33;27.70;26.10
43697;DHT22;29301;47.620;19.560;2023-08-12T11:01:00;27.50;26.60
43697;DHT22;29301;47.620;19.560;2023-08-12T11:03:26;27.50;26.20
43697;DHT22;29301;47.620;19.560;2023-08-12T11:05:53;27.50;26.10
43697;DHT22;29301;47.620;19.560;2023-08-12T11:08:24;27.50;25.80
43697;DHT22;29301;47.620;19.560;2023-08-12T11:10:52;27.70;25.70
43697;DHT22;29301;47.620;19.560;2023-08-12T11:13:19;27.80;25.10
43697;DHT22;29301;47.620;19.560;2023-08-12T11:15:45;28.20;25.20
43697;DHT22;29301;47.620;19.560;2023-08-12T11:18:14;28.50;25.80
43697;DHT22;29301;47.620;19.560;2023-08-12T11:20:42;28.50;25.10
43697;DHT22;29301;47.620;19.560;2023-08-12T11:23:09;28.20;26.40
43697;DHT22;29301;47.620;19.560;2023-08-12T11:25:37;28.30;26.80
43697;DHT22;29301;47.620;19.560;2023-08-12T11:28:04;28.20;26.10
43697;DHT22;29301;47.620;19.560;2023-08-12T11:30:30;28.00;25.90
43697;DHT22;29301;47.620;19.560;2023-08-12T11:32:56;27.80;26.20
43697;DHT22;29301;47.620;19.560;2023-08-12T11:35:23;28.10;25.80
43697;DHT22;29301;47.620;19.560;2023-08-12T11:37:56;28.60;25.90
43697;DHT22;29301;47.620;19.560;2023-08-12T11:40:21;28.90;25.40
43697;DHT22;29301;47.620;19.560;2023-08-12T11:42:49;29.00;24.00
43697;DHT22;29301;47.620;19.560;2023-08-12T11:45:19;28.50;25.60
43697;DHT22;29301;47.620;19.560;2023-08-12T11:47:46;28.50;25.50
43697;DHT22;29301;47.620;19.560;2023-08-12T11:50:18;28.80;24.40
43697;DHT22;29301;47.620;19.560;2023-08-12T11:52:44;29.00;23.90
43697;DHT22;29301;47.620;19.560;2023-08-12T11:55:11;29.20;23.80
43697;DHT22;29301;47.620;19.560;2023-08-12T11:57:39;29.40;24.20
43697;DHT22;29301;47.620;19.560;2023-08-12T12:00:07;29.60;24.20
43697;DHT22;29301;47.620;19.560;2023-08-12T12:02:50;29.70;24.40
43697;DHT22;29301;47.620;19.560;2023-08-12T12:05:18;29.70;24.00
43697;DHT22;29301;47.620;19.560;2023-08-12T12:07:44;29.60;23.60
43697;DHT22;29301;47.620;19.560;2023-08-12T12:10:33;29.70;23.20
43697;DHT22;29301;47.620;19.560;2023-08-12T12:13:00;29.70;22.70
43697;DHT22;29301;47.620;19.560;2023-08-12T12:15:27;29.50;22.60
43697;DHT22;29301;47.620;19.560;2023-08-12T12:17:52;29.30;23.10
43697;DHT22;29301;47.620;19.560;2023-08-12T12:20:18;29.50;22.60
43697;DHT22;29301;47.620;19.560;2023-08-12T12:22:47;29.40;21.90
43697;DHT22;29301;47.620;19.560;2023-08-12T12:25:14;29.10;22.50
43697;DHT22;29301;47.620;19.560;2023-08-12T12:27:42;29.10;22.90
43697;DHT22;29301;47.620;19.560;2023-08-12T12:30:13;29.30;23.10
43697;DHT22;29301;47.620;19.560;2023-08-12T12:32:39;29.40;22.70
43697;DHT22;29301;47.620;19.560;2023-08-12T12:35:05;29.30;23.30
43697;DHT22;29301;47.620;19.560;2023-08-12T12:37:35;29.30;22.30
43697;DHT22;29301;47.620;19.560;2023-08-12T12:40:00;29.30;22.70
43697;DHT22;29301;47.620;19.560;2023-08-12T12:42:26;29.50;23.40
43697;DHT22;29301;47.620;19.560;2023-08-12T12:44:52;29.70;23.30
43697;DHT22;29301;47.620;19.560;2023-08-12T12:47:18;29.70;23.50
43697;DHT22;29301;47.620;19.560;2023-08-12T12:49:45;29.60;22.90
43697;DHT22;29301;47.620;19.560;2023-08-12T12:52:10;29.40;23.10
43697;DHT22;29301;47.620;19.560;2023-08-12T12:54:36;29.30;22.70
43697;DHT22;29301;47.620;19.560;2023-08-12T12:57:02;29.40;23.10
43697;DHT22;29301;47.620;19.560;2023-08-12T12:59:29;29.50;22.80
43697;DHT22;29301;47.620;19.560;2023-08-12T13:01:55;29.60;22.70
43697;DHT22;29301;47.620;19.560;2023-08-12T13:04:21;29.60;22.50
43697;DHT22;29301;47.620;19.560;2023-08-12T13:06:46;29.60;23.10
43697;DHT22;29301;47.620;19.560;2023-08-12T13:09:12;29.60;22.70
43697;DHT22;29301;47.620;19.560;2023-08-12T13:11:38;29.50;23.10
43697;DHT22;29301;47.620;19.560;2023-08-12T13:14:04;29.60;23.00
43697;DHT22;29301;47.620;19.560;2023-08-12T13:16:30;29.70;22.90
43697;DHT22;29301;47.620;19.560;2023-08-12T13:18:56;29.70;23.00
43697;DHT22;29301;47.620;19.560;2023-08-12T13:21:24;29.80;23.00
43697;DHT22;29301;47.620;19.560;2023-08-12T13:23:50;29.70;22.80
43697;DHT22;29301;47.620;19.560;2023-08-12T13:26:16;29.50;22.80
43697;DHT22;29301;47.620;19.560;2023-08-12T13:28:41;29.50;22.20
43697;DHT22;29301;47.620;19.560;2023-08-12T13:31:07;29.50;22.10
43697;DHT22;29301;47.620;19.560;2023-08-12T13:33:34;29.40;22.20
43697;DHT22;29301;47.620;19.560;2023-08-12T13:35:59;29.40;22.60
43697;DHT22;29301;47.620;19.560;2023-08-12T13:38:25;29.40;22.70
43697;DHT22;29301;47.620;19.560;2023-08-12T13:40:50;29.40;22.50
43697;DHT22;29301;47.620;19.560;2023-08-12T13:43:16;29.40;22.70
43697;DHT22;29301;47.620;19.560;2023-08-12T13:45:42;29.30;22.70
43697;DHT22;29301;47.620;19.560;2023-08-12T13:48:08;29.10;22.70
43697;DHT22;29301;47.620;19.560;2023-08-12T13:50:33;28.90;23.30
43697;DHT22;29301;47.620;19.560;2023-08-12T13:52:59;28.90;23.20
43697;DHT22;29301;47.620;19.560;2023-08-12T13:55:25;28.60;22.80
43697;DHT22;29301;47.620;19.560;2023-08-12T13:57:51;28.70;23.10
43697;DHT22;29301;47.620;19.560;2023-08-12T14:00:18;28.70;23.20
43697;DHT22;29301;47.620;19.560;2023-08-12T14:02:44;28.80;23.70
43697;DHT22;29301;47.620;19.560;2023-08-12T14:05:10;28.90;23.60
43697;DHT22;29301;47.620;19.560;2023-08-12T14:07:36;28.90;23.30
43697;DHT22;29301;47.620;19.560;2023-08-12T14:10:03;29.00;23.10
43697;DHT22;29301;47.620;19.560;2023-08-12T14:12:29;29.00;22.80
43697;DHT22;29301;47.620;19.560;2023-08-12T14:14:54;28.90;23.10
43697;DHT22;29301;47.620;19.560;2023-08-12T14:17:20;29.00;23.50
43697;DHT22;29301;47.620;19.560;2023-08-12T14:19:49;29.10;23.50
43697;DHT22;29301;47.620;19.560;2023-08-12T14:22:17;29.20;23.00
43697;DHT22;29301;47.620;19.560;2023-08-12T14:24:42;29.10;23.10
43697;DHT22;29301;47.620;19.560;2023-08-12T14:27:10;29.00;23.20
43697;DHT22;29301;47.620;19.560;2023-08-12T14:29:35;29.00;23.50
43697;DHT22;29301;47.620;19.560;2023-08-12T14:32:01;29.10;23.60
43697;DHT22;29301;47.620;19.560;2023-08-12T14:34:27;29.20;24.00
43697;DHT22;29301;47.620;19.560;2023-08-12T14:36:53;29.00;24.20
43697;DHT22;29301;47.620;19.560;2023-08-12T14:39:18;29.10;23.80
43697;DHT22;29301;47.620;19.560;2023-08-12T14:41:44;29.10;23.90
43697;DHT22;29301;47.620;19.560;2023-08-12T14:44:11;28.90;23.80
43697;DHT22;29301;47.620;19.560;2023-08-12T14:46:36;29.00;23.50
43697;DHT22;29301;47.620;19.560;2023-08-12T14:49:02;29.10;23.80
43697;DHT22;29301;47.620;19.560;2023-08-12T14:51:28;29.20;23.30
43697;DHT22;29301;47.620;19.560;2023-08-12T14:53:55;29.20;23.60
43697;DHT22;29301;47.620;19.560;2023-08-12T14:56:21;29.20;24.30
43697;DHT22;29301;47.620;19.560;2023-08-12T14:58:46;29.20;24.10
43697;DHT22;29301;47.620;19.560;2023-08-12T15:01:12;29.20;24.20
43697;DHT22;29301;47.620;19.560;2023-08-12T15:03:38;29.20;23.70
43697;DHT22;29301;47.620;19.560;2023-08-12T15:06:04;29.20;23.50
43697;DHT22;29301;47.620;19.560;2023-08-12T15:08:31;29.20;23.60
43697;DHT22;29301;47.620;19.560;2023-08-12T15:10:57;29.10;23.50
43697;DHT22;29301;47.620;19.560;2023-08-12T15:13:23;29.10;23.90